Hlavní strana
METAR-TAF:

METAR-TAF

Letiště :

Capital City Airport

Frankfort, Kentucky, Spojené státy americké

zeměpisná šířka: 38-11-05N, zeměpisná délka: 084-54-12W, výška: 245 m

Aktuální stav počasí

Zpráva byla vytvořena před 1 hodinou a 5 minutami, v 01:53 UTC
Bezvětří
Teplota 4°C
Vlhkost vzduchu 87%
Tlak 1030 hPa
Viditelnost: 16.1 km
Jasno

METAR: KFFT 190153Z AUTO 00000KT 10SM CLR 04/02 A3041 RMK AO2 SLP303 T00390017

Čas: 22:58 (02:58 UTC)


TAF: chybějící

Stav a předpovědi počasí z více než 4 000 letišť (zprávy METAR a TAF).

Červené a žluté tečky na mapě představují dostupné meteorologické stanice.

Když kurzor umístíte na tečku, zobrazí se název stanice.

Pak kliknutím zobrazíte stav a předpověď počasí.

Chcete-li změnit mapu, kliknutím na zelené tlačítko se znaménkem +mapu přiblížíte, kliknutím na zelené tlačítko se znaménkem – mapu oddálíte a kliknutím na zelené šipky přejdete na sousední mapy.


METAR-TAF: